Time;durP1;ratioP1;P1;durP2;ratioP2;P2;SDS_P1;SDS_P2;PMS_P1;PMS_P2;Temp;Humidity;BMP_temperature;BMP_pressure;BME280_temperature;BME280_humidity;BME280_pressure;Samples;Min_cycle;Max_cycle;Signal;HPM_P1;HPM_P2
2023/08/17 00:00:26;;;;;;;499.20;476.23;;;18.70;99.90;;;;;;5112672;28;20527;-60
2023/08/17 00:02:53;;;;;;;466.30;445.33;;;18.70;99.90;;;;;;5112749;28;20484;-60
2023/08/17 00:05:20;;;;;;;445.70;425.23;;;18.60;99.90;;;;;;5112747;28;20555;-60
2023/08/17 00:07:47;;;;;;;429.00;409.53;;;18.60;99.90;;;;;;5112697;28;20449;-60
2023/08/17 00:10:14;;;;;;;463.40;442.13;;;18.60;99.90;;;;;;5112699;28;20451;-60
2023/08/17 00:12:42;;;;;;;440.40;420.50;;;18.60;99.90;;;;;;5112355;28;20453;-60
2023/08/17 00:15:10;;;;;;;436.37;416.87;;;18.50;99.90;;;;;;5112432;28;20448;-61
2023/08/17 00:17:37;;;;;;;472.00;450.13;;;18.50;99.90;;;;;;5112657;28;20451;-62
2023/08/17 00:20:05;;;;;;;500.23;475.73;;;18.50;99.90;;;;;;5112434;28;20448;-60
2023/08/17 00:22:33;;;;;;;446.73;425.67;;;18.50;99.90;;;;;;5112305;28;20491;-60
2023/08/17 00:25:00;;;;;;;407.57;388.37;;;18.50;99.90;;;;;;5113666;28;20480;-60
2023/08/17 00:27:26;;;;;;;448.07;425.47;;;18.50;99.90;;;;;;5116273;28;20445;-60
2023/08/17 00:29:55;;;;;;;379.97;361.77;;;18.50;99.90;;;;;;5116273;28;20468;-60
2023/08/17 00:32:21;;;;;;;303.93;289.77;;;18.50;99.90;;;;;;5116533;28;20455;-60
2023/08/17 00:34:48;;;;;;;308.03;293.60;;;18.50;99.90;;;;;;5116675;28;20464;-60
2023/08/17 00:37:15;;;;;;;277.57;265.30;;;18.40;99.90;;;;;;5116451;28;20448;-60
2023/08/17 00:39:42;;;;;;;282.47;269.67;;;18.40;99.90;;;;;;5115900;28;20445;-60
2023/08/17 00:42:09;;;;;;;305.83;292.20;;;18.40;99.90;;;;;;5116213;28;20449;-60
2023/08/17 00:44:36;;;;;;;295.77;282.20;;;18.30;99.90;;;;;;5116416;28;20488;-60
2023/08/17 00:47:05;;;;;;;288.70;275.90;;;18.30;99.90;;;;;;5116183;28;20448;-60
2023/08/17 00:49:33;;;;;;;289.73;276.70;;;18.30;99.90;;;;;;5116087;28;20448;-60
2023/08/17 00:52:01;;;;;;;275.23;262.63;;;18.40;99.90;;;;;;5116079;28;20457;-60
2023/08/17 00:54:30;;;;;;;296.73;282.77;;;18.40;99.90;;;;;;5115877;28;20448;-60
2023/08/17 00:56:57;;;;;;;287.43;274.23;;;18.40;99.90;;;;;;5116038;28;20567;-60
2023/08/17 00:59:24;;;;;;;293.17;279.77;;;18.40;99.90;;;;;;5115441;28;20449;-60
2023/08/17 01:01:51;;;;;;;300.73;286.83;;;18.40;99.90;;;;;;5115604;28;20452;-60
2023/08/17 01:04:20;;;;;;;274.60;262.43;;;18.40;99.90;;;;;;5115738;28;20485;-60
2023/08/17 01:06:46;;;;;;;282.57;269.97;;;18.40;99.90;;;;;;5115746;28;20471;-60
2023/08/17 01:09:13;;;;;;;299.00;285.20;;;18.40;99.90;;;;;;5115460;28;20816;-60
2023/08/17 01:11:50;;;;;;;303.43;289.63;;;18.40;99.90;;;;;;5115706;28;20449;-60
2023/08/17 01:14:28;;;;;;;311.10;296.80;;;18.30;99.90;;;;;;5115864;28;20791;-60
2023/08/17 01:17:01;;;;;;;322.97;308.30;;;18.30;99.90;;;;;;5115583;28;20830;-60
2023/08/17 01:19:29;;;;;;;306.53;292.83;;;18.30;99.90;;;;;;5115697;28;20539;-60
2023/08/17 01:22:01;;;;;;;342.77;326.47;;;18.30;99.90;;;;;;5115381;28;20450;-60
2023/08/17 01:24:29;;;;;;;306.73;292.83;;;18.30;99.90;;;;;;5115342;28;20483;-60
2023/08/17 01:26:56;;;;;;;280.40;268.00;;;18.30;99.90;;;;;;5115523;28;20449;-60
2023/08/17 01:29:23;;;;;;;286.43;273.43;;;18.20;99.90;;;;;;5115203;28;20460;-60
2023/08/17 01:31:55;;;;;;;296.07;282.60;;;18.30;99.90;;;;;;5115329;28;20449;-60
2023/08/17 01:34:24;;;;;;;265.43;253.83;;;18.30;99.90;;;;;;5115623;28;20455;-60
2023/08/17 01:36:54;;;;;;;273.73;261.30;;;18.30;99.90;;;;;;5114218;28;20449;-60
2023/08/17 01:39:24;;;;;;;267.80;255.93;;;18.30;99.90;;;;;;5115350;28;20449;-60
2023/08/17 01:41:53;;;;;;;251.50;240.40;;;18.30;99.90;;;;;;5114794;28;20957;-60
2023/08/17 01:44:21;;;;;;;248.80;238.20;;;18.30;99.90;;;;;;5114967;28;20472;-60
2023/08/17 01:46:48;;;;;;;239.17;229.20;;;18.30;99.90;;;;;;5114828;28;20471;-60
2023/08/17 01:49:15;;;;;;;229.47;220.07;;;18.30;99.90;;;;;;5114653;28;20536;-60
2023/08/17 01:51:41;;;;;;;225.43;216.13;;;18.30;99.90;;;;;;5114842;28;20453;-60
2023/08/17 01:54:09;;;;;;;236.50;226.73;;;18.30;99.90;;;;;;5114929;28;20445;-60
2023/08/17 01:56:36;;;;;;;251.27;240.40;;;18.30;99.90;;;;;;5114879;28;20445;-60
2023/08/17 01:59:04;;;;;;;252.17;241.07;;;18.30;99.90;;;;;;5114622;28;20448;-60
2023/08/17 02:01:31;;;;;;;244.27;233.87;;;18.40;99.90;;;;;;5114601;28;20463;-60
2023/08/17 02:03:59;;;;;;;257.93;246.87;;;18.30;99.90;;;;;;5114495;28;20460;-60
2023/08/17 02:06:26;;;;;;;239.60;229.60;;;18.30;99.90;;;;;;5114680;28;20449;-60
2023/08/17 02:08:53;;;;;;;230.40;220.80;;;18.40;99.90;;;;;;5114496;28;20812;-60
2023/08/17 02:11:20;;;;;;;243.00;232.57;;;18.40;99.90;;;;;;5114444;28;20445;-60
2023/08/17 02:13:46;;;;;;;236.23;226.13;;;18.40;99.90;;;;;;5114283;28;20445;-60
2023/08/17 02:16:15;;;;;;;225.80;215.70;;;18.40;99.90;;;;;;5114638;28;20445;-60
2023/08/17 02:18:41;;;;;;;244.90;234.30;;;18.30;99.90;;;;;;5114389;28;20446;-60
2023/08/17 02:21:09;;;;;;;226.20;216.87;;;18.40;99.90;;;;;;5114319;28;20526;-60
2023/08/17 02:23:35;;;;;;;238.87;228.67;;;18.40;99.90;;;;;;5114304;28;20449;-60
2023/08/17 02:26:02;;;;;;;235.33;225.47;;;18.40;99.90;;;;;;5114365;28;20789;-60
2023/08/17 02:28:29;;;;;;;228.63;218.67;;;18.40;99.90;;;;;;5114003;28;20479;-60
2023/08/17 02:30:56;;;;;;;232.47;222.73;;;18.40;99.90;;;;;;5114501;28;20452;-60
2023/08/17 02:33:25;;;;;;;239.57;229.73;;;18.30;99.90;;;;;;5114207;28;20819;-60
2023/08/17 02:35:52;;;;;;;242.30;232.37;;;18.30;99.90;;;;;;5114209;28;20510;-60
2023/08/17 02:38:19;;;;;;;252.93;242.33;;;18.30;99.90;;;;;;5113724;28;20536;-60
2023/08/17 02:40:49;;;;;;;261.10;250.00;;;18.30;99.90;;;;;;5113686;28;20449;-60
2023/08/17 02:43:16;;;;;;;274.70;262.77;;;18.30;99.90;;;;;;5113844;28;20950;-60
2023/08/17 02:45:43;;;;;;;262.17;251.37;;;18.20;99.90;;;;;;5113783;28;20502;-60
2023/08/17 02:48:09;;;;;;;269.43;257.83;;;18.20;99.90;;;;;;5113666;28;20952;-60
2023/08/17 02:50:38;;;;;;;272.73;260.73;;;18.20;99.90;;;;;;5113851;28;20457;-60
2023/08/17 02:53:04;;;;;;;262.20;250.93;;;18.20;99.90;;;;;;5113638;28;20449;-60
2023/08/17 02:55:31;;;;;;;300.27;286.83;;;18.20;99.90;;;;;;5113632;28;20952;-60
2023/08/17 02:57:58;;;;;;;299.20;286.07;;;18.20;99.90;;;;;;5113498;28;20452;-60
2023/08/17 03:00:25;;;;;;;319.70;305.23;;;18.20;99.90;;;;;;5113709;28;20445;-60
2023/08/17 03:02:52;;;;;;;353.20;336.60;;;18.20;99.90;;;;;;5113583;28;20804;-60
2023/08/17 03:05:19;;;;;;;371.53;353.73;;;18.20;99.90;;;;;;5113538;28;20560;-60
2023/08/17 03:07:47;;;;;;;371.47;354.00;;;18.10;99.90;;;;;;5113536;28;20449;-60
2023/08/17 03:10:14;;;;;;;379.57;361.70;;;18.10;99.90;;;;;;5099690;28;20448;-60
2023/08/17 03:12:41;;;;;;;364.33;347.00;;;18.00;99.90;;;;;;5113407;28;20441;-60
2023/08/17 03:15:09;;;;;;;380.20;362.20;;;17.90;99.90;;;;;;5113370;28;20445;-60
2023/08/17 03:17:35;;;;;;;382.93;365.17;;;17.90;99.90;;;;;;5113599;28;20499;-60
2023/08/17 03:20:02;;;;;;;380.63;363.03;;;17.90;99.90;;;;;;5113034;28;20453;-60
2023/08/17 03:22:29;;;;;;;411.47;391.80;;;17.90;99.90;;;;;;5112972;28;20453;-60
2023/08/17 03:24:57;;;;;;;414.67;394.70;;;17.90;99.90;;;;;;5113131;28;21018;-60
2023/08/17 03:27:24;;;;;;;426.23;405.17;;;17.90;99.90;;;;;;5113041;28;20963;-60
2023/08/17 03:29:51;;;;;;;416.20;396.13;;;17.80;99.90;;;;;;5112830;28;20441;-60
2023/08/17 03:32:18;;;;;;;433.60;412.30;;;17.80;99.90;;;;;;5112965;28;20928;-60
2023/08/17 03:34:45;;;;;;;436.53;414.83;;;17.80;99.90;;;;;;5112908;28;20451;-60
2023/08/17 03:37:12;;;;;;;438.30;416.77;;;17.70;99.90;;;;;;5112701;28;20502;-60
2023/08/17 03:39:39;;;;;;;422.50;402.50;;;17.80;99.90;;;;;;5112807;28;20456;-60
2023/08/17 03:42:07;;;;;;;393.70;375.50;;;17.70;99.90;;;;;;5113116;28;20445;-60
2023/08/17 03:44:34;;;;;;;408.23;388.77;;;17.70;99.90;;;;;;5112854;28;20451;-60
2023/08/17 03:47:01;;;;;;;441.57;419.27;;;17.70;99.90;;;;;;5112929;28;20457;-60
2023/08/17 03:49:28;;;;;;;426.63;406.33;;;17.70;99.90;;;;;;5112378;28;20477;-60
2023/08/17 03:51:55;;;;;;;480.07;455.30;;;17.70;99.90;;;;;;5112097;28;20452;-60
2023/08/17 03:54:21;;;;;;;447.47;424.97;;;17.70;99.90;;;;;;5112456;28;20445;-60
2023/08/17 03:56:48;;;;;;;416.63;396.67;;;17.70;99.90;;;;;;5112961;28;20444;-60
2023/08/17 03:59:16;;;;;;;410.53;390.40;;;17.60;99.90;;;;;;5111943;28;20467;-60
2023/08/17 04:01:43;;;;;;;399.17;379.57;;;17.60;99.90;;;;;;5112765;28;20441;-60
2023/08/17 04:04:10;;;;;;;342.77;326.77;;;17.60;99.90;;;;;;5112333;28;20548;-60
2023/08/17 04:06:39;;;;;;;307.47;293.10;;;17.60;99.90;;;;;;5112809;28;20487;-60
2023/08/17 04:09:06;;;;;;;309.57;294.93;;;17.50;99.90;;;;;;5112587;28;20445;-60
2023/08/17 04:11:35;;;;;;;283.53;270.67;;;17.50;99.90;;;;;;5112558;28;20506;-60
2023/08/17 04:14:02;;;;;;;286.93;272.87;;;17.50;99.90;;;;;;5112426;28;20526;-60
2023/08/17 04:16:30;;;;;;;311.70;296.53;;;17.40;99.90;;;;;;5113142;28;20441;-60
2023/08/17 04:18:57;;;;;;;297.83;283.37;;;17.40;99.90;;;;;;5112274;28;20945;-60
2023/08/17 04:21:24;;;;;;;290.43;276.27;;;17.40;99.90;;;;;;5112770;28;20445;-60
2023/08/17 04:23:51;;;;;;;321.37;305.77;;;17.40;99.90;;;;;;5112733;28;20469;-60
2023/08/17 04:26:18;;;;;;;325.73;309.03;;;17.40;99.90;;;;;;5112202;28;20491;-60
2023/08/17 04:28:45;;;;;;;328.23;311.97;;;17.40;99.90;;;;;;5111849;28;20452;-61
2023/08/17 04:31:12;;;;;;;307.13;292.33;;;17.50;99.90;;;;;;5111979;28;20453;-61
2023/08/17 04:33:41;;;;;;;340.13;323.13;;;17.40;99.90;;;;;;5110502;28;20453;-61
2023/08/17 04:36:08;;;;;;;306.73;290.93;;;17.50;99.90;;;;;;5111635;28;20445;-61
2023/08/17 04:38:35;;;;;;;332.63;316.10;;;17.50;99.90;;;;;;5113342;28;20453;-60
2023/08/17 04:41:01;;;;;;;345.00;327.47;;;17.50;99.90;;;;;;5111877;28;20932;-60
2023/08/17 04:43:28;;;;;;;323.13;307.13;;;17.40;99.90;;;;;;5111937;28;20536;-61
2023/08/17 04:45:55;;;;;;;337.40;319.60;;;17.50;99.90;;;;;;5111719;28;20465;-60
2023/08/17 04:48:22;;;;;;;326.80;309.93;;;17.50;99.90;;;;;;5112028;28;20932;-61
2023/08/17 04:50:52;;;;;;;323.13;306.83;;;17.40;99.90;;;;;;5112155;28;20456;-61
2023/08/17 04:53:18;;;;;;;343.10;326.20;;;17.40;99.90;;;;;;5111357;28;20448;-61
2023/08/17 04:55:45;;;;;;;328.37;311.23;;;17.50;99.90;;;;;;5112332;28;20797;-60
2023/08/17 04:58:12;;;;;;;349.83;331.93;;;17.50;99.90;;;;;;5112010;28;20445;-61
2023/08/17 05:00:39;;;;;;;322.77;306.57;;;17.50;99.90;;;;;;5112052;28;20449;-61
2023/08/17 05:03:06;;;;;;;327.90;311.10;;;17.50;99.90;;;;;;5111896;28;20536;-61
2023/08/17 05:05:33;;;;;;;324.63;308.17;;;17.50;99.90;;;;;;5111462;28;20479;-61
2023/08/17 05:08:01;;;;;;;321.33;304.33;;;17.50;99.90;;;;;;5111969;28;20445;-60
2023/08/17 05:10:28;;;;;;;312.63;295.93;;;17.50;99.90;;;;;;5111805;28;20824;-61
2023/08/17 05:12:55;;;;;;;318.43;301.73;;;17.50;99.90;;;;;;5114446;28;20444;-61
2023/08/17 05:15:22;;;;;;;334.97;317.13;;;17.50;99.90;;;;;;5115664;28;20445;-61
2023/08/17 05:17:49;;;;;;;310.07;293.63;;;17.60;99.90;;;;;;5115090;28;20445;-60
2023/08/17 05:20:16;;;;;;;321.57;304.80;;;17.60;99.90;;;;;;5115009;28;20472;-61
2023/08/17 05:22:43;;;;;;;302.43;286.83;;;17.60;99.90;;;;;;5115369;28;20798;-61
2023/08/17 05:25:11;;;;;;;319.17;302.87;;;17.60;99.90;;;;;;5115247;28;20468;-61
2023/08/17 05:27:38;;;;;;;325.53;308.33;;;17.60;99.90;;;;;;5115320;28;20444;-61
2023/08/17 05:30:06;;;;;;;315.23;298.47;;;17.70;99.90;;;;;;5115271;28;20445;-61
2023/08/17 05:32:33;;;;;;;294.33;279.40;;;17.70;99.90;;;;;;5115145;28;20475;-62
2023/08/17 05:35:00;;;;;;;306.67;290.77;;;17.80;99.90;;;;;;5114980;28;20970;-61
2023/08/17 05:37:27;;;;;;;304.63;288.23;;;17.80;99.90;;;;;;5114674;28;20481;-61
2023/08/17 05:39:53;;;;;;;307.97;291.97;;;17.80;99.90;;;;;;5114994;28;20445;-61
2023/08/17 05:42:22;;;;;;;302.93;287.07;;;17.90;99.90;;;;;;5114757;28;20449;-61
2023/08/17 05:44:48;;;;;;;313.50;297.70;;;17.90;99.90;;;;;;5115251;28;20817;-60
2023/08/17 05:47:18;;;;;;;288.67;273.90;;;17.90;99.90;;;;;;5114689;28;20473;-61
2023/08/17 05:49:45;;;;;;;292.87;278.07;;;18.00;99.90;;;;;;5114740;28;20936;-61
2023/08/17 05:52:11;;;;;;;281.73;267.57;;;18.10;99.90;;;;;;5113934;28;20481;-61
2023/08/17 05:54:38;;;;;;;269.43;256.43;;;18.10;99.90;;;;;;5115017;28;20471;-60
2023/08/17 05:57:05;;;;;;;267.13;254.33;;;18.20;99.90;;;;;;5114506;28;20450;-60
2023/08/17 05:59:33;;;;;;;261.83;249.17;;;18.30;99.90;;;;;;5114623;28;20455;-60
2023/08/17 06:02:00;;;;;;;241.27;229.50;;;18.30;99.90;;;;;;5114832;28;20445;-61
2023/08/17 06:04:27;;;;;;;244.40;232.67;;;18.50;99.90;;;;;;5113785;28;20452;-60
2023/08/17 06:06:54;;;;;;;218.67;208.30;;;18.60;99.90;;;;;;5114308;28;20985;-61
2023/08/17 06:09:20;;;;;;;213.17;203.37;;;18.60;99.90;;;;;;5114276;28;20444;-61
2023/08/17 06:11:47;;;;;;;180.37;172.30;;;18.80;99.90;;;;;;5114955;28;20451;-60
2023/08/17 06:14:14;;;;;;;142.30;135.63;;;18.90;99.90;;;;;;5114548;28;20452;-61
2023/08/17 06:16:42;;;;;;;122.37;116.50;;;19.00;99.90;;;;;;5113128;28;20448;-60
2023/08/17 06:19:09;;;;;;;114.23;108.60;;;19.00;99.90;;;;;;5114209;28;20944;-61
2023/08/17 06:21:35;;;;;;;99.47;94.43;;;19.20;99.90;;;;;;5114132;28;20449;-60
2023/08/17 06:24:03;;;;;;;82.47;78.47;;;19.20;99.90;;;;;;5113329;28;20445;-61
2023/08/17 06:26:30;;;;;;;71.43;67.00;;;19.40;99.90;;;;;;5114151;28;20477;-60
2023/08/17 06:28:57;;;;;;;62.10;58.40;;;19.40;99.90;;;;;;5113897;28;20445;-61
2023/08/17 06:31:27;;;;;;;76.97;72.68;;;19.50;99.90;;;;;;5112846;28;20446;-61
2023/08/17 06:33:55;;;;;;;39.23;36.27;;;19.70;99.90;;;;;;5113929;28;20218;-61
2023/08/17 06:36:22;;;;;;;32.17;29.20;;;19.50;99.90;;;;;;5113061;28;20447;-64
2023/08/17 06:38:48;;;;;;;37.63;34.53;;;19.50;99.90;;;;;;5113656;28;20455;-64
2023/08/17 06:41:16;;;;;;;32.23;29.20;;;19.50;99.90;;;;;;5113261;28;20449;-64
2023/08/17 06:43:43;;;;;;;32.87;30.07;;;19.50;99.90;;;;;;5113727;28;20448;-64
2023/08/17 06:46:10;;;;;;;32.27;29.63;;;19.70;99.90;;;;;;5113219;28;20995;-64
2023/08/17 06:48:36;;;;;;;25.83;23.33;;;19.90;99.90;;;;;;5113426;28;20445;-64
2023/08/17 06:51:05;;;;;;;25.10;22.50;;;20.10;99.90;;;;;;5112866;28;20819;-64
2023/08/17 06:53:31;;;;;;;26.27;23.90;;;19.90;99.90;;;;;;5112790;28;20445;-64
2023/08/17 06:55:58;;;;;;;25.37;22.17;;;19.90;99.90;;;;;;5113459;28;20467;-64
2023/08/17 06:58:25;;;;;;;24.40;20.83;;;19.90;99.90;;;;;;5113353;28;20632;-64
2023/08/17 07:00:52;;;;;;;23.03;20.20;;;19.60;99.90;;;;;;5113054;28;20449;-64
2023/08/17 07:03:20;;;;;;;22.77;20.80;;;19.60;99.90;;;;;;5112842;28;20452;-64
2023/08/17 07:05:47;;;;;;;24.13;21.03;;;19.50;99.90;;;;;;5113515;28;20494;-64
2023/08/17 07:08:16;;;;;;;23.00;20.60;;;19.50;99.90;;;;;;5113389;28;20449;-64
2023/08/17 07:10:43;;;;;;;24.83;22.63;;;19.40;99.90;;;;;;5113168;28;20510;-64
2023/08/17 07:13:10;;;;;;;22.07;20.00;;;19.40;99.90;;;;;;5112896;28;20445;-64
2023/08/17 07:15:37;;;;;;;22.87;20.80;;;19.30;99.90;;;;;;5112916;28;20448;-65
2023/08/17 07:18:04;;;;;;;27.40;24.87;;;19.40;99.90;;;;;;5112647;28;20456;-64
2023/08/17 07:20:31;;;;;;;24.73;22.47;;;19.40;99.90;;;;;;5112938;28;20834;-64
2023/08/17 07:22:58;;;;;;;28.90;26.30;;;19.50;99.90;;;;;;5112763;28;20819;-65
2023/08/17 07:25:26;;;;;;;26.43;24.17;;;19.60;99.90;;;;;;5112815;28;20445;-66
2023/08/17 07:27:53;;;;;;;20.73;18.67;;;19.70;99.90;;;;;;5112819;28;20539;-65
2023/08/17 07:30:20;;;;;;;22.20;18.50;;;19.70;99.90;;;;;;5112437;28;20441;-64
2023/08/17 07:32:47;;;;;;;20.30;18.40;;;19.60;99.90;;;;;;5112958;28;20558;-65
2023/08/17 07:35:13;;;;;;;21.07;18.00;;;19.80;99.90;;;;;;5111930;28;20944;-64
2023/08/17 07:37:40;;;;;;;19.93;17.90;;;19.90;99.90;;;;;;5112823;28;20441;-64
2023/08/17 07:40:08;;;;;;;18.70;16.27;;;19.90;99.90;;;;;;5112737;28;20445;-64
2023/08/17 07:42:37;;;;;;;21.93;18.57;;;19.90;99.90;;;;;;5112384;28;20445;-64
2023/08/17 07:45:06;;;;;;;20.53;18.47;;;19.80;99.90;;;;;;5112228;28;20445;-66
2023/08/17 07:47:32;;;;;;;22.73;20.37;;;19.90;99.90;;;;;;5112793;28;20920;-65
2023/08/17 07:49:59;;;;;;;28.05;25.55;;;20.00;99.90;;;;;;5112284;28;20937;-67
2023/08/17 07:52:26;;;;;;;22.73;20.63;;;20.10;99.90;;;;;;5113009;28;20691;-67
2023/08/17 07:54:54;;;;;;;21.63;16.60;;;20.20;99.90;;;;;;5112730;28;20521;-67
2023/08/17 07:57:21;;;;;;;22.67;18.13;;;20.50;99.90;;;;;;5112695;28;20480;-67
2023/08/17 07:59:49;;;;;;;23.53;17.20;;;20.80;99.90;;;;;;5112706;28;20444;-67
2023/08/17 08:02:16;;;;;;;27.23;18.57;;;20.60;99.90;;;;;;5112849;28;20455;-67
2023/08/17 08:04:43;;;;;;;20.53;15.30;;;20.50;99.90;;;;;;5112774;28;20449;-67
2023/08/17 08:07:10;;;;;;;23.97;16.80;;;20.50;99.90;;;;;;5112515;28;20481;-67
2023/08/17 08:09:37;;;;;;;21.20;17.30;;;20.50;99.90;;;;;;5112566;28;20449;-67
2023/08/17 08:12:04;;;;;;;19.50;17.40;;;20.40;99.90;;;;;;5112663;28;20452;-67
2023/08/17 08:14:31;;;;;;;26.13;18.07;;;20.50;99.90;;;;;;5112770;28;20453;-67
2023/08/17 08:16:59;;;;;;;19.57;17.47;;;20.50;99.90;;;;;;5112674;28;20453;-67
2023/08/17 08:19:26;;;;;;;23.23;18.87;;;20.40;99.90;;;;;;5112742;28;20815;-67
2023/08/17 08:21:53;;;;;;;23.90;16.93;;;20.50;99.90;;;;;;5112601;28;20451;-67
2023/08/17 08:24:20;;;;;;;20.80;18.17;;;20.50;99.90;;;;;;5112424;28;20445;-67
2023/08/17 08:26:46;;;;;;;22.13;18.30;;;20.50;99.90;;;;;;5112559;28;20469;-67
2023/08/17 08:29:13;;;;;;;23.90;19.40;;;20.60;99.90;;;;;;5112422;28;20535;-68
2023/08/17 08:31:40;;;;;;;18.30;16.33;;;20.70;99.90;;;;;;5112560;28;20449;-67
2023/08/17 08:34:08;;;;;;;22.17;16.43;;;20.90;99.90;;;;;;5112762;28;20494;-67
2023/08/17 08:36:35;;;;;;;22.57;17.10;;;21.00;99.90;;;;;;5112351;28;20956;-68
2023/08/17 08:39:02;;;;;;;20.97;17.03;;;20.80;99.90;;;;;;5112403;28;20552;-67
2023/08/17 08:41:31;;;;;;;26.73;16.37;;;20.90;99.90;;;;;;5112225;28;20441;-68
2023/08/17 08:43:58;;;;;;;22.43;13.97;;;20.90;99.90;;;;;;5112449;28;20819;-68
2023/08/17 08:46:29;;;;;;;19.63;16.20;;;20.90;99.90;;;;;;5114807;28;20473;-68
2023/08/17 08:48:56;;;;;;;17.73;15.40;;;20.70;99.70;;;;;;5116331;28;20453;-67
2023/08/17 08:51:28;;;;;;;21.90;15.83;;;20.70;99.90;;;;;;5116099;28;20459;-67
2023/08/17 08:54:01;;;;;;;22.63;17.00;;;20.40;99.90;;;;;;5116087;28;20452;-68
2023/08/17 08:56:32;;;;;;;24.33;15.20;;;20.60;99.90;;;;;;5116247;28;20444;-67
2023/08/17 08:59:02;;;;;;;22.40;17.07;;;20.90;99.90;;;;;;5116282;28;20455;-68
2023/08/17 09:01:31;;;;;;;20.20;16.63;;;20.90;99.90;;;;;;5116197;28;20996;-67
2023/08/17 09:04:02;;;;;;;16.80;14.60;;;20.90;99.90;;;;;;5115909;28;20451;-68
2023/08/17 09:06:32;;;;;;;24.40;16.30;;;21.10;99.20;;;;;;5115975;27;20485;-67
2023/08/17 09:09:01;;;;;;;20.97;15.17;;;21.20;99.80;;;;;;5116097;28;20931;-68
2023/08/17 09:11:28;;;;;;;19.30;14.43;;;21.20;99.00;;;;;;5115984;28;20444;-67
2023/08/17 09:13:55;;;;;;;20.60;14.90;;;21.40;99.10;;;;;;5115696;28;20459;-67
2023/08/17 09:16:22;;;;;;;18.60;14.43;;;21.60;98.50;;;;;;5115978;28;20794;-69
2023/08/17 09:18:49;;;;;;;22.17;13.97;;;21.50;97.90;;;;;;5115691;28;20457;-68
2023/08/17 09:21:22;;;;;;;19.47;13.77;;;21.40;98.10;;;;;;5115716;28;20448;-67
2023/08/17 09:23:53;;;;;;;19.17;14.90;;;21.40;99.10;;;;;;5115725;28;20445;-67
2023/08/17 09:26:21;;;;;;;19.43;15.00;;;21.50;99.10;;;;;;5115713;28;20494;-67
2023/08/17 09:28:48;;;;;;;23.23;17.17;;;21.50;99.10;;;;;;5115661;28;20551;-66
2023/08/17 09:31:15;;;;;;;23.90;16.10;;;21.50;99.10;;;;;;5115380;28;20998;-67
2023/08/17 09:33:42;;;;;;;17.50;14.77;;;21.10;98.90;;;;;;5115617;28;20785;-67
2023/08/17 09:36:12;;;;;;;23.40;18.60;;;20.90;99.90;;;;;;5115685;28;20448;-67
2023/08/17 09:38:39;;;;;;;20.20;17.30;;;20.70;99.90;;;;;;5115513;28;20862;-68
2023/08/17 09:41:07;;;;;;;28.20;17.93;;;20.60;99.90;;;;;;5115377;28;20445;-69
2023/08/17 09:43:34;;;;;;;27.37;18.73;;;20.70;99.90;;;;;;5115221;28;20441;-67
2023/08/17 09:46:03;;;;;;;27.23;16.60;;;20.80;99.90;;;;;;5115126;28;20445;-68
2023/08/17 09:48:30;;;;;;;22.87;19.07;;;20.60;99.90;;;;;;5115301;28;20481;-68
2023/08/17 09:50:59;;;;;;;23.50;18.53;;;20.90;99.90;;;;;;5115195;28;20463;-68
2023/08/17 09:53:26;;;;;;;22.60;16.20;;;21.20;99.90;;;;;;5115123;28;20869;-67
2023/08/17 09:55:55;;;;;;;21.10;15.60;;;21.20;99.00;;;;;;5115072;28;20449;-68
2023/08/17 09:58:24;;;;;;;24.00;18.97;;;20.90;98.90;;;;;;5114109;28;20441;-67
2023/08/17 10:00:51;;;;;;;21.83;15.90;;;21.20;99.10;;;;;;5115128;28;20445;-69
2023/08/17 10:03:19;;;;;;;28.80;19.30;;;20.90;99.50;;;;;;5115008;28;20445;-67
2023/08/17 10:05:53;;;;;;;27.23;17.63;;;21.00;99.00;;;;;;5115030;28;20445;-67
2023/08/17 10:08:21;;;;;;;21.13;16.63;;;21.30;99.90;;;;;;5115224;28;20483;-67
2023/08/17 10:10:48;;;;;;;22.53;14.83;;;21.30;99.00;;;;;;5115038;28;20939;-68
2023/08/17 10:13:28;;;;;;;20.60;15.80;;;21.30;99.00;;;;;;5114594;28;20449;-68
2023/08/17 10:16:02;;;;;;;26.87;17.67;;;21.40;99.00;;;;;;5114880;28;20452;-68
2023/08/17 10:18:36;;;;;;;22.93;15.70;;;21.60;96.50;;;;;;5114758;28;20444;-68
2023/08/17 10:21:10;;;;;;;23.20;15.03;;;21.80;95.90;;;;;;5114604;28;20453;-67
2023/08/17 10:23:39;;;;;;;20.97;16.27;;;21.60;95.80;;;;;;5114637;28;20429;-68
2023/08/17 10:26:08;;;;;;;25.80;14.90;;;21.70;98.50;;;;;;5114588;28;20448;-68
2023/08/17 10:28:35;;;;;;;20.20;12.97;;;21.40;97.80;;;;;;5114504;28;20476;-68
2023/08/17 10:31:03;;;;;;;21.47;15.07;;;21.20;99.00;;;;;;5114267;28;20451;-67
2023/08/17 10:33:31;;;;;;;27.13;18.43;;;21.40;98.40;;;;;;5114254;28;20441;-68
2023/08/17 10:35:58;;;;;;;21.70;17.30;;;21.30;98.70;;;;;;5114222;28;20453;-67
2023/08/17 10:38:25;;;;;;;20.90;16.37;;;21.20;99.00;;;;;;5114412;28;20963;-68
2023/08/17 10:41:10;;;;;;;23.93;18.10;;;21.50;99.10;;;;;;5114245;28;20820;-67
2023/08/17 10:43:56;;;;;;;27.67;18.83;;;21.70;96.90;;;;;;5114140;28;20480;-68
2023/08/17 10:46:33;;;;;;;24.53;16.37;;;21.50;95.70;;;;;;5114057;28;20449;-68
2023/08/17 10:49:04;;;;;;;25.27;18.77;;;21.40;97.80;;;;;;5114006;28;20962;-66
2023/08/17 10:51:30;;;;;;;25.40;16.60;;;21.60;97.90;;;;;;5113967;28;20499;-67
2023/08/17 10:53:59;;;;;;;24.07;17.40;;;21.60;98.40;;;;;;5113867;28;20487;-67
2023/08/17 10:56:28;;;;;;;29.60;17.30;;;21.80;96.80;;;;;;5113981;28;20448;-68
2023/08/17 10:58:55;;;;;;;27.10;16.83;;;22.00;97.10;;;;;;5113656;28;20804;-68
2023/08/17 11:01:35;;;;;;;20.07;15.47;;;22.40;96.10;;;;;;5114008;28;20457;-67
2023/08/17 11:04:12;;;;;;;22.53;17.53;;;22.30;96.10;;;;;;5113617;28;20445;-67
2023/08/17 11:06:39;;;;;;;22.17;14.33;;;22.30;96.10;;;;;;5113594;28;20449;-67
2023/08/17 11:09:08;;;;;;;22.70;16.83;;;22.50;96.10;;;;;;5112648;28;20519;-68
2023/08/17 11:11:35;;;;;;;25.03;16.13;;;22.70;93.10;;;;;;5113746;28;20478;-68
2023/08/17 11:14:02;;;;;;;20.90;15.97;;;22.50;93.40;;;;;;5113345;28;20449;-68
2023/08/17 11:16:29;;;;;;;19.93;15.90;;;22.90;94.20;;;;;;5113623;28;20448;-68
2023/08/17 11:18:59;;;;;;;24.37;17.23;;;22.90;93.80;;;;;;5113638;28;20811;-67
2023/08/17 11:21:26;;;;;;;21.97;15.17;;;23.00;94.00;;;;;;5113377;28;20956;-68
2023/08/17 11:23:57;;;;;;;20.87;13.80;;;23.10;92.10;;;;;;5113290;28;20459;-68
2023/08/17 11:26:24;;;;;;;21.60;15.57;;;22.70;92.80;;;;;;5113607;28;20449;-68
2023/08/17 11:28:52;;;;;;;24.37;16.20;;;22.70;92.80;;;;;;5113346;28;20483;-68
2023/08/17 11:31:19;;;;;;;22.40;14.90;;;22.80;92.90;;;;;;5113424;28;20448;-67
2023/08/17 11:33:46;;;;;;;27.93;16.83;;;22.70;94.60;;;;;;5113345;28;20471;-66
2023/08/17 11:36:14;;;;;;;25.57;17.67;;;22.60;94.50;;;;;;5113187;28;20476;-67
2023/08/17 11:38:43;;;;;;;18.03;13.53;;;22.60;94.60;;;;;;5113217;28;20452;-64
2023/08/17 11:41:16;;;;;;;20.40;15.40;;;22.60;93.40;;;;;;5114522;28;20449;-63
2023/08/17 11:43:44;;;;;;;28.97;15.17;;;22.70;94.10;;;;;;5112222;28;20452;-64
2023/08/17 11:46:10;;;;;;;19.63;13.07;;;22.80;93.90;;;;;;5113142;28;20455;-65
2023/08/17 11:48:38;;;;;;;22.33;15.47;;;22.80;93.90;;;;;;5113207;28;21006;-65
2023/08/17 11:51:04;;;;;;;19.50;14.03;;;22.70;96.20;;;;;;5114264;28;20552;-64
2023/08/17 11:53:36;;;;;;;20.60;13.73;;;22.70;93.90;;;;;;5112727;28;20451;-64
2023/08/17 11:56:03;;;;;;;19.40;14.30;;;22.60;93.10;;;;;;5111911;28;20449;-64
2023/08/17 11:58:43;;;;;;;21.40;15.10;;;22.60;95.10;;;;;;5113046;28;20486;-64
2023/08/17 12:01:11;;;;;;;23.10;14.77;;;22.40;94.30;;;;;;5113927;28;20936;-64
2023/08/17 12:03:40;;;;;;;23.97;16.40;;;22.40;94.00;;;;;;5112920;28;20453;-65
2023/08/17 12:06:07;;;;;;;20.83;14.93;;;22.40;94.90;;;;;;5113057;28;20445;-64
2023/08/17 12:08:35;;;;;;;20.40;13.87;;;22.40;96.10;;;;;;5112589;28;20476;-64
2023/08/17 12:11:03;;;;;;;21.17;15.80;;;22.40;96.10;;;;;;5113708;28;20928;-64
2023/08/17 12:13:34;;;;;;;18.30;14.60;;;22.50;96.10;;;;;;5112744;28;20449;-64
2023/08/17 12:16:01;;;;;;;23.23;14.70;;;22.50;96.10;;;;;;5112642;28;20913;-64
2023/08/17 12:18:28;;;;;;;20.90;13.67;;;22.20;95.80;;;;;;5112998;28;20444;-64
2023/08/17 12:20:56;;;;;;;21.80;16.60;;;21.90;95.90;;;;;;5115345;28;20853;-64